Flight Track Log - Related Links

Times and Time Zones

All times are in EDT time to prevent confusion due to time zone crossing. See the SWA3513 flight status page for this flight to view local times or setup timezone preferences in your user account.

Time Position Orientation Groundspeed Altitude Reporting Facility
EDT Latitude Longitude Course Direction KTS MPH feet Rate Location/Type
Mon 02:41:50 PM 33.5975 -117.9006 190° South 155 178 3,300  Level Los Angeles Center
Mon 02:42:52 PM 33.5325 -117.9306 201° Southwest 217 250 5,600 2,118 Climbing Los Angeles Center
Mon 02:44:06 PM 33.4950 -118.0100 241° Southwest 263 303 8,100 1,796 Climbing Los Angeles Center
Mon 02:45:09 PM 33.4578 -118.1347 250° West 279 321 9,700 1,968 Climbing Los Angeles Center
Mon 02:46:00 PM 33.4667 -118.4953 270° West  Level FlightAware Approximate
Mon 02:46:11 PM 33.4319 -118.2292 252° West 297 342 12,200  Level Los Angeles Center
Mon 02:47:13 PM 33.3975 -118.3411 250° West 335 386 14,700 2,323 Climbing Los Angeles Center
Mon 02:48:15 PM 33.4456 -118.4472 299° West 389 448 17,000 2,129 Climbing Los Angeles Center
Mon 02:49:17 PM 33.5061 -118.5225 314° West 389 448 19,100 2,304 Climbing Los Angeles Center
Mon 02:50:20 PM 33.6028 -118.6414 314° West 415 478 21,800 2,448 Climbing Los Angeles Center
Mon 02:51:22 PM 33.6861 -118.7442 314° West 424 488 24,200 2,129 Climbing Los Angeles Center
Mon 02:52:24 PM 33.7689 -118.8472 314° West 425 489 26,200 2,274 Climbing Los Angeles Center
Mon 02:53:26 PM 33.8719 -118.9744 314° West 440 506 28,900 2,516 Climbing Los Angeles Center
Mon 02:54:28 PM 33.9556 -119.0792 314° West 435 501 31,400 1,645 Climbing Los Angeles Center
Mon 02:55:30 PM 34.0369 -119.1806 314° West 422 486 32,300 1,258 Climbing Los Angeles Center
Mon 02:56:32 PM 34.1172 -119.2811 314° West 419 482 34,000 816 Climbing Los Angeles Center
Mon 02:57:35 PM 34.1978 -119.3817 314° West 416 479 34,000  Level Los Angeles Center
Mon 02:58:37 PM 34.2792 -119.4833 314° West 422 486 34,000  Level Los Angeles Center
Mon 02:59:39 PM 34.3761 -119.6069 314° West 422 486 34,000  Level Los Angeles Center
Mon 03:00:41 PM 34.4569 -119.7078 314° West 419 482 34,000  Level Los Angeles Center
Mon 03:01:43 PM 34.5428 -119.8056 317° Northwest 423 487 34,000  Level Los Angeles Center
Mon 03:02:45 PM 34.6478 -119.8858 328° Northwest 433 498 34,000  Level Los Angeles Center
Mon 03:03:59 PM 34.7472 -119.9683 326° Northwest 432 497 34,000  Level Los Angeles Center
Mon 03:05:02 PM 34.8658 -120.0681 325° Northwest 432 497 34,000  Level Los Angeles Center
Mon 03:06:04 PM 34.9817 -120.1608 327° Northwest 432 497 34,000  Level Los Angeles Center
Mon 03:07:06 PM 35.0783 -120.2428 325° Northwest 429 494 34,000  Level Los Angeles Center
Mon 03:08:08 PM 35.1764 -120.3242 326° Northwest 431 496 34,000  Level Los Angeles Center
Mon 03:09:10 PM 35.2539 -120.3903 325° Northwest 430 495 34,000  Level Los Angeles Center
Mon 03:10:12 PM 35.3911 -120.5086 325° Northwest 455 524 34,000  Level Los Angeles Center
Mon 03:11:15 PM 35.4889 -120.5903 326° Northwest 431 496 34,000  Level Los Angeles Center
Mon 03:12:17 PM 35.5864 -120.6725 326° Northwest 426 490 34,000  Level Los Angeles Center
Mon 03:13:03 PM 35.6600 -120.7361 325° Northwest 425 489 34,000 -778 Level Oakland Center
Mon 03:14:05 PM 35.7586 -120.8183 326° Northwest 427 491 32,600 -1,500 Descending Oakland Center
Mon 03:15:07 PM 35.8589 -120.9042 325° Northwest 433 498 30,900 -2,244 Descending Oakland Center
Mon 03:16:08 PM 35.9819 -121.0086 326° Northwest 444 511 28,000 -2,829 Descending Oakland Center
Mon 03:17:10 PM 36.0872 -121.0992 325° Northwest 458 527 25,100 -2,927 Descending Oakland Center
Mon 03:18:11 PM 36.1883 -121.1897 324° Northwest 446 513 22,000 -2,439 Descending Oakland Center
Mon 03:19:13 PM 36.2889 -121.2742 326° Northwest 430 495 20,100 -976 Descending Oakland Center
Mon 03:20:14 PM 36.3858 -121.3597 325° Northwest 425 489 20,000 -1,122 Descending Oakland Center
Mon 03:21:16 PM 36.4875 -121.4333 330° Northwest 420 483 17,800 -2,634 Descending Oakland Center
Mon 03:22:17 PM 36.5994 -121.4772 343° North 415 478 14,600 -3,122 Descending Oakland Center
Mon 03:23:19 PM 36.7100 -121.5172 344° North 412 474 11,400 -2,244 Descending Oakland Center
Mon 03:24:20 PM 36.8200 -121.5703 339° North 361 415 10,000 -1,122 Descending Oakland Center
Mon 03:25:22 PM 36.8989 -121.6022 342° North 306 352 9,100 -976 Descending Oakland Center
Mon 03:26:23 PM 36.9747 -121.6339 342° North 290 334 8,000 -1,268 Descending Oakland Center
Mon 03:27:25 PM 37.0481 -121.6650 341° North 282 325 6,500 -1,306 Descending Oakland Center
Mon 03:28:27 PM 37.1197 -121.6953 341° North 274 315 5,300 -1,059 Descending Oakland Center
Mon 03:28:50 PM 37.1500 -121.7167 331° Northwest 260 299 5,000 -885 Descending Northern Cal TRACON
Mon 03:29:28 PM 37.1850 -121.7297 343° North 265 305 4,400 -720 Descending Oakland Center
Mon 03:30:30 PM 37.2325 -121.7903 315° West 251 289 3,800 -976 Descending Oakland Center
Mon 03:31:31 PM 37.2797 -121.8375 321° Northwest 205 236 2,400 -1,220 Descending Oakland Center
Mon 03:32:33 PM 37.3114 -121.8719 319° Northwest 175 201 1,300 -927 Descending Oakland Center
Mon 03:33:34 PM 37.3411 -121.9039 319° Northwest 155 178 500 -787 Descending Oakland Center
Mon 03:36:00 PM 37.3500 -121.9167 North  Level FlightAware Approximate

Login

Don't have an account? Register now (free) for customized features, flight alerts, and more!